createdAt,value
2023-09-25T00:00:56.851Z,82
2023-09-25T00:02:55.815Z,82
2023-09-25T00:04:56.394Z,83
2023-09-25T00:06:56.883Z,83
2023-09-25T00:08:56.391Z,82
2023-09-25T00:10:57.111Z,82
2023-09-25T00:12:57.237Z,83
2023-09-25T00:14:55.442Z,83
2023-09-25T00:16:56.277Z,83
2023-09-25T00:18:56.859Z,83
2023-09-25T00:20:55.828Z,83
2023-09-25T00:22:56.313Z,82
2023-09-25T00:24:56.752Z,83
2023-09-25T00:26:55.816Z,83
2023-09-25T00:28:56.352Z,83
2023-09-25T00:30:57.270Z,83
2023-09-25T00:32:56.428Z,83
2023-09-25T00:34:56.331Z,83
2023-09-25T00:36:57.055Z,83
2023-09-25T00:38:55.795Z,83
2023-09-25T00:40:56.726Z,83
2023-09-25T00:42:56.735Z,83
2023-09-25T00:44:55.800Z,83
2023-09-25T00:46:56.292Z,83
2023-09-25T00:48:57.003Z,83
2023-09-25T00:50:55.757Z,83
2023-09-25T00:52:56.397Z,83
2023-09-25T00:54:56.985Z,83
2023-09-25T00:56:56.881Z,83
2023-09-25T00:58:55.732Z,83
2023-09-25T01:00:59.748Z,83
2023-09-25T01:02:55.560Z,83
2023-09-25T01:04:56.262Z,83
2023-09-25T01:08:55.579Z,83
2023-09-25T01:10:56.400Z,84
2023-09-25T01:12:56.828Z,84
2023-09-25T01:14:55.789Z,84
2023-09-25T01:16:57.291Z,84
2023-09-25T01:20:55.355Z,84
2023-09-25T01:22:56.296Z,84
2023-09-25T01:24:56.843Z,84
2023-09-25T01:26:56.290Z,84
2023-09-25T01:28:56.181Z,84
2023-09-25T01:30:57.152Z,84
2023-09-25T01:32:56.408Z,84
2023-09-25T01:34:56.708Z,84
2023-09-25T01:36:56.923Z,84
2023-09-25T01:40:54.490Z,84
2023-09-25T01:44:57.265Z,84
2023-09-25T01:46:54.461Z,84
2023-09-25T01:50:56.964Z,84
2023-09-25T01:52:55.815Z,84
2023-09-25T01:54:57.018Z,84
2023-09-25T01:56:56.847Z,84
2023-09-25T01:58:56.172Z,84
2023-09-25T02:00:57.001Z,84
2023-09-25T02:02:56.578Z,84
2023-09-25T02:04:56.842Z,84
2023-09-25T02:06:57.058Z,84
2023-09-25T02:08:56.304Z,84
2023-09-25T02:10:56.913Z,84
2023-09-25T02:12:56.827Z,84
2023-09-25T02:16:55.911Z,84
2023-09-25T02:18:56.564Z,84
2023-09-25T02:20:56.695Z,83
2023-09-25T02:22:57.000Z,83
2023-09-25T02:26:56.614Z,84
2023-09-25T02:28:56.649Z,84
2023-09-25T02:30:56.864Z,84
2023-09-25T02:32:56.618Z,84
2023-09-25T02:34:55.824Z,84
2023-09-25T02:36:56.903Z,84
2023-09-25T02:38:56.193Z,84
2023-09-25T02:40:56.265Z,84
2023-09-25T02:42:56.800Z,84
2023-09-25T02:44:56.682Z,83
2023-09-25T02:46:55.159Z,84
2023-09-25T02:48:56.592Z,84
2023-09-25T02:50:56.668Z,84
2023-09-25T02:52:56.330Z,84
2023-09-25T02:54:57.089Z,84
2023-09-25T02:56:56.858Z,84
2023-09-25T03:00:56.916Z,84
2023-09-25T03:02:57.014Z,84
2023-09-25T03:04:55.748Z,84
2023-09-25T03:06:56.601Z,84
2023-09-25T03:10:56.264Z,84
2023-09-25T03:12:56.565Z,84
2023-09-25T03:16:55.518Z,85
2023-09-25T03:18:57.059Z,85
2023-09-25T03:20:56.574Z,84
2023-09-25T03:22:55.816Z,85
2023-09-25T03:24:56.949Z,85
2023-09-25T03:28:55.412Z,85
2023-09-25T03:30:56.828Z,85
2023-09-25T03:32:56.894Z,85
2023-09-25T03:34:56.439Z,85
2023-09-25T03:36:56.557Z,85
2023-09-25T03:40:56.359Z,85
2023-09-25T03:42:56.618Z,85
2023-09-25T03:44:56.831Z,85
2023-09-25T03:46:56.433Z,85
2023-09-25T03:50:56.518Z,84
2023-09-25T03:52:55.650Z,84
2023-09-25T03:54:56.711Z,84
2023-09-25T03:56:57.107Z,85
2023-09-25T03:58:55.795Z,84
2023-09-25T04:00:57.166Z,84
2023-09-25T04:02:56.857Z,85
2023-09-25T04:04:55.479Z,85
2023-09-25T04:06:56.644Z,85
2023-09-25T04:08:57.063Z,85
2023-09-25T04:10:55.829Z,85
2023-09-25T04:12:56.462Z,85
2023-09-25T04:14:56.974Z,85
2023-09-25T04:16:55.969Z,85
2023-09-25T04:18:56.665Z,85
2023-09-25T04:20:57.057Z,85
2023-09-25T04:22:55.470Z,85
2023-09-25T04:24:56.707Z,85
2023-09-25T04:26:56.908Z,85
2023-09-25T04:28:55.885Z,85
2023-09-25T04:30:56.661Z,85
2023-09-25T04:32:57.040Z,85
2023-09-25T04:34:56.392Z,85
2023-09-25T04:36:56.743Z,85
2023-09-25T04:38:56.727Z,85
2023-09-25T04:40:56.071Z,85
2023-09-25T04:42:57.319Z,85
2023-09-25T04:44:57.517Z,85
2023-09-25T04:46:56.378Z,85
2023-09-25T04:50:56.757Z,85
2023-09-25T04:52:54.632Z,85
2023-09-25T04:54:55.780Z,85
2023-09-25T04:56:55.294Z,85
2023-09-25T04:58:56.395Z,85
2023-09-25T05:00:56.671Z,85
2023-09-25T05:02:56.679Z,85
2023-09-25T05:04:56.058Z,85
2023-09-25T05:06:57.004Z,85
2023-09-25T05:08:56.597Z,85
2023-09-25T05:10:56.510Z,85
2023-09-25T05:12:56.434Z,85
2023-09-25T05:18:57.306Z,85
2023-09-25T05:20:57.114Z,85
2023-09-25T05:22:55.637Z,85
2023-09-25T05:24:56.647Z,85
2023-09-25T05:26:56.623Z,85
2023-09-25T05:28:55.863Z,85
2023-09-25T05:32:56.764Z,85
2023-09-25T05:34:55.721Z,85
2023-09-25T05:38:56.801Z,85
2023-09-25T05:40:56.334Z,85
2023-09-25T05:42:56.819Z,85
2023-09-25T05:44:57.349Z,85
2023-09-25T05:46:56.027Z,85
2023-09-25T05:48:58.908Z,85
2023-09-25T05:50:56.864Z,84
2023-09-25T05:52:56.441Z,84
2023-09-25T05:54:56.839Z,84
2023-09-25T05:56:56.374Z,84
2023-09-25T05:58:56.379Z,84
2023-09-25T06:02:56.393Z,84
2023-09-25T06:04:55.817Z,84
2023-09-25T06:06:56.632Z,84
2023-09-25T06:10:56.398Z,84
2023-09-25T06:12:57.146Z,84
2023-09-25T06:14:57.178Z,84
2023-09-25T06:16:56.590Z,84
2023-09-25T06:18:57.072Z,84
2023-09-25T06:20:56.864Z,84
2023-09-25T06:22:55.891Z,84
2023-09-25T06:24:56.781Z,84
2023-09-25T06:26:56.421Z,84
2023-09-25T06:28:56.053Z,84
2023-09-25T06:30:56.919Z,84
2023-09-25T06:32:57.249Z,83
2023-09-25T06:34:55.609Z,84
2023-09-25T06:36:57.028Z,84
2023-09-25T06:38:55.909Z,83
2023-09-25T06:40:55.958Z,83
2023-09-25T06:42:56.764Z,83
2023-09-25T06:44:56.458Z,83
2023-09-25T06:46:56.546Z,83
2023-09-25T06:48:56.976Z,80
2023-09-25T06:50:56.933Z,70
2023-09-25T06:52:55.690Z,69
2023-09-25T06:54:56.837Z,69
2023-09-25T06:56:56.856Z,69
2023-09-25T06:58:56.455Z,69
2023-09-25T07:00:57.802Z,69
2023-09-25T07:02:56.782Z,69
2023-09-25T07:04:56.199Z,69
2023-09-25T07:06:56.631Z,69
2023-09-25T07:08:56.856Z,69
2023-09-25T07:10:54.831Z,70
2023-09-25T07:12:57.252Z,69
2023-09-25T07:14:56.907Z,69
2023-09-25T07:16:56.541Z,69
2023-09-25T07:18:56.822Z,69
2023-09-25T07:22:56.014Z,70
2023-09-25T07:24:57.016Z,70
2023-09-25T07:26:56.359Z,69
2023-09-25T07:28:56.444Z,69
2023-09-25T07:30:56.800Z,69
2023-09-25T07:32:56.971Z,69
2023-09-25T07:34:56.333Z,69
2023-09-25T07:36:56.640Z,69
2023-09-25T07:38:57.444Z,69
2023-09-25T07:41:01.229Z,70
2023-09-25T07:42:57.202Z,70
2023-09-25T07:46:55.954Z,70
2023-09-25T07:49:00.114Z,68
2023-09-25T07:52:56.753Z,69
2023-09-25T07:56:57.128Z,68
2023-09-25T07:58:55.576Z,67
2023-09-25T08:00:56.898Z,66
2023-09-25T08:02:56.832Z,66
2023-09-25T08:04:56.980Z,66
2023-09-25T08:08:56.786Z,65
2023-09-25T08:10:56.533Z,67
2023-09-25T08:12:56.450Z,68
2023-09-25T08:14:57.436Z,68
2023-09-25T08:16:55.573Z,66
2023-09-25T08:18:56.995Z,67
2023-09-25T08:20:56.775Z,68
2023-09-25T08:22:56.635Z,68
2023-09-25T08:24:56.324Z,66
2023-09-25T08:26:57.062Z,68
2023-09-25T08:28:56.309Z,68
2023-09-25T08:30:57.203Z,69
2023-09-25T08:32:56.790Z,68
2023-09-25T08:34:56.656Z,68
2023-09-25T08:36:56.749Z,67
2023-09-25T08:38:56.840Z,68
2023-09-25T08:40:54.735Z,68
2023-09-25T08:43:09.228Z,68
2023-09-25T08:46:54.720Z,69
2023-09-25T08:50:56.904Z,68
2023-09-25T08:52:55.895Z,69
2023-09-25T08:54:56.958Z,69
2023-09-25T08:56:57.136Z,68
2023-09-25T08:58:54.640Z,68
2023-09-25T09:00:57.399Z,68
2023-09-25T09:02:56.418Z,68
2023-09-25T09:05:01.246Z,69
2023-09-25T09:06:56.766Z,69
2023-09-25T09:08:56.980Z,69
2023-09-25T09:10:57.941Z,69
2023-09-25T09:16:56.825Z,70
2023-09-25T09:18:56.338Z,69
2023-09-25T09:20:55.884Z,69
2023-09-25T09:22:56.936Z,68
2023-09-25T09:26:56.671Z,68
2023-09-25T09:28:56.718Z,69
2023-09-25T09:30:56.563Z,68
2023-09-25T09:32:57.481Z,68
2023-09-25T09:34:56.907Z,69
2023-09-25T09:36:56.545Z,70
2023-09-25T09:38:56.826Z,68
2023-09-25T09:40:56.974Z,68
2023-09-25T09:42:56.600Z,69
2023-09-25T09:46:56.850Z,69
2023-09-25T09:48:56.595Z,68
2023-09-25T09:50:56.667Z,68
2023-09-25T09:54:54.864Z,69
2023-09-25T09:56:56.781Z,69
2023-09-25T09:58:56.951Z,69
2023-09-25T10:00:54.909Z,69
2023-09-25T10:02:57.137Z,69
2023-09-25T10:06:54.900Z,70
2023-09-25T10:08:56.817Z,69
2023-09-25T10:10:56.208Z,69
2023-09-25T10:12:56.047Z,69
2023-09-25T10:14:57.141Z,69
2023-09-25T10:16:58.321Z,69
2023-09-25T10:18:55.752Z,69
2023-09-25T10:24:54.376Z,69
2023-09-25T10:26:56.730Z,68
2023-09-25T10:28:55.508Z,67
2023-09-25T10:30:56.532Z,67
2023-09-25T10:32:57.085Z,67
2023-09-25T10:34:56.980Z,66
2023-09-25T10:36:56.521Z,66
2023-09-25T10:38:57.580Z,66
2023-09-25T10:42:57.472Z,66
2023-09-25T10:44:57.233Z,65
2023-09-25T10:46:55.705Z,66
2023-09-25T10:48:56.827Z,65
2023-09-25T10:50:56.864Z,66
2023-09-25T10:52:56.690Z,65
2023-09-25T10:56:56.287Z,65
2023-09-25T10:58:56.434Z,65
2023-09-25T11:00:56.430Z,65
2023-09-25T11:02:57.052Z,66
2023-09-25T11:04:55.878Z,65
2023-09-25T11:06:57.065Z,66
2023-09-25T11:08:56.853Z,67
2023-09-25T11:10:55.945Z,66
2023-09-25T11:12:57.107Z,66
2023-09-25T11:14:56.960Z,66
2023-09-25T11:16:56.326Z,66
2023-09-25T11:18:57.162Z,66
2023-09-25T11:20:56.845Z,66
2023-09-25T11:23:05.453Z,66
2023-09-25T11:24:57.441Z,65
2023-09-25T11:26:56.809Z,65
2023-09-25T11:28:55.169Z,66
2023-09-25T11:30:56.955Z,64
2023-09-25T11:34:57.096Z,65
2023-09-25T11:36:57.194Z,64
2023-09-25T11:38:56.586Z,64
2023-09-25T11:42:57.245Z,65
2023-09-25T11:44:56.769Z,64
2023-09-25T11:46:56.815Z,65
2023-09-25T11:48:57.139Z,65
2023-09-25T11:50:54.880Z,65
2023-09-25T11:52:56.837Z,66
2023-09-25T11:54:57.077Z,65
2023-09-25T11:56:56.170Z,64
2023-09-25T11:58:56.858Z,64
2023-09-25T12:00:56.942Z,65
2023-09-25T12:02:56.181Z,65
2023-09-25T12:04:57.081Z,65
2023-09-25T12:06:57.367Z,64
2023-09-25T12:08:56.563Z,65
2023-09-25T12:10:56.477Z,64
2023-09-25T12:12:57.458Z,65
2023-09-25T12:14:56.511Z,65
2023-09-25T12:16:57.033Z,65
2023-09-25T12:18:57.162Z,63
2023-09-25T12:20:56.851Z,65
2023-09-25T12:26:55.884Z,64
2023-09-25T12:30:56.579Z,64
2023-09-25T12:32:56.247Z,64
2023-09-25T12:34:57.121Z,65
2023-09-25T12:36:56.997Z,65
2023-09-25T12:38:56.611Z,64
2023-09-25T12:40:57.810Z,64
2023-09-25T12:42:57.116Z,65
2023-09-25T12:44:56.601Z,64
2023-09-25T12:46:57.602Z,63
2023-09-25T12:48:56.903Z,63
2023-09-25T12:50:56.603Z,63
2023-09-25T12:52:56.953Z,63
2023-09-25T12:54:57.445Z,63
2023-09-25T12:58:57.135Z,64
2023-09-25T13:00:56.861Z,64
2023-09-25T13:02:56.422Z,65
2023-09-25T13:04:57.225Z,65
2023-09-25T13:06:55.485Z,65
2023-09-25T13:08:56.486Z,64
2023-09-25T13:10:57.105Z,64
2023-09-25T13:14:55.724Z,64
2023-09-25T13:16:57.347Z,64
2023-09-25T13:20:55.869Z,65
2023-09-25T13:22:57.050Z,65
2023-09-25T13:24:57.509Z,64
2023-09-25T13:26:56.258Z,64
2023-09-25T13:28:56.771Z,64
2023-09-25T13:30:56.800Z,64
2023-09-25T13:32:57.082Z,65
2023-09-25T13:34:57.164Z,65
2023-09-25T13:36:57.349Z,64
2023-09-25T13:38:56.148Z,65
2023-09-25T13:40:57.043Z,65
2023-09-25T13:42:57.333Z,65
2023-09-25T13:44:56.674Z,64
2023-09-25T13:46:57.016Z,64
2023-09-25T13:48:57.106Z,65
2023-09-25T13:50:56.181Z,65
2023-09-25T13:52:56.932Z,64
2023-09-25T13:54:56.940Z,64
2023-09-25T13:56:56.688Z,64
2023-09-25T13:58:57.061Z,64
2023-09-25T14:00:57.049Z,64
2023-09-25T14:02:56.227Z,64
2023-09-25T14:04:57.139Z,64
2023-09-25T14:08:56.969Z,65
2023-09-25T14:10:57.141Z,65
2023-09-25T14:12:57.277Z,65
2023-09-25T14:14:57.368Z,65
2023-09-25T14:18:57.335Z,65
2023-09-25T14:20:55.743Z,65
2023-09-25T14:22:55.904Z,64
2023-09-25T14:26:55.873Z,66
2023-09-25T14:28:57.580Z,65
2023-09-25T14:30:55.088Z,65
2023-09-25T14:32:56.713Z,65
2023-09-25T14:34:56.975Z,65
2023-09-25T14:36:57.177Z,65
2023-09-25T14:38:55.353Z,66
2023-09-25T14:40:56.833Z,65
2023-09-25T14:42:59.152Z,66
2023-09-25T14:44:56.650Z,65
2023-09-25T14:46:57.081Z,66
2023-09-25T14:48:57.273Z,65
2023-09-25T14:50:56.590Z,65
2023-09-25T14:52:57.156Z,65
2023-09-25T14:54:57.160Z,65
2023-09-25T14:56:56.110Z,65
2023-09-25T14:59:01.260Z,66
2023-09-25T15:00:56.871Z,65
2023-09-25T15:02:55.821Z,65
2023-09-25T15:04:57.225Z,65
2023-09-25T15:08:55.715Z,66
2023-09-25T15:10:56.769Z,65
2023-09-25T15:12:56.464Z,66
2023-09-25T15:14:56.733Z,66
2023-09-25T15:18:56.443Z,67
2023-09-25T15:20:56.523Z,66
2023-09-25T15:22:56.893Z,66
2023-09-25T15:24:56.578Z,66
2023-09-25T15:26:57.015Z,66
2023-09-25T15:28:57.222Z,66
2023-09-25T15:30:56.526Z,66
2023-09-25T15:34:56.889Z,67
2023-09-25T15:36:57.078Z,67
2023-09-25T15:38:56.136Z,67
2023-09-25T15:40:56.918Z,67
2023-09-25T15:42:57.195Z,67
2023-09-25T15:44:55.580Z,68
2023-09-25T15:46:57.093Z,68
2023-09-25T15:48:55.025Z,67
2023-09-25T15:50:56.645Z,68
2023-09-25T15:54:58.741Z,68
2023-09-25T15:56:56.597Z,68
2023-09-25T15:58:57.340Z,68
2023-09-25T16:00:56.955Z,68
2023-09-25T16:02:56.323Z,68
2023-09-25T16:04:55.180Z,68
2023-09-25T16:06:57.272Z,68
2023-09-25T16:08:56.242Z,68
2023-09-25T16:10:56.786Z,69
2023-09-25T16:12:55.273Z,69
2023-09-25T16:14:56.656Z,69
2023-09-25T16:16:55.999Z,69
2023-09-25T16:18:57.081Z,69
2023-09-25T16:20:54.833Z,69
2023-09-25T16:22:56.834Z,69
2023-09-25T16:26:56.063Z,70
2023-09-25T16:28:57.526Z,69
2023-09-25T16:30:56.913Z,70
2023-09-25T16:32:56.181Z,70
2023-09-25T16:34:57.204Z,70
2023-09-25T16:36:56.972Z,70
2023-09-25T16:38:56.552Z,70
2023-09-25T16:40:56.765Z,70
2023-09-25T16:44:55.166Z,71
2023-09-25T16:46:57.136Z,71
2023-09-25T16:48:57.153Z,71
2023-09-25T16:50:56.570Z,71
2023-09-25T16:52:56.853Z,71
2023-09-25T16:56:54.961Z,71
2023-09-25T16:58:57.011Z,71
2023-09-25T17:00:57.148Z,71
2023-09-25T17:02:55.129Z,71
2023-09-25T17:04:56.900Z,71
2023-09-25T17:06:56.757Z,71
2023-09-25T17:08:57.603Z,72
2023-09-25T17:10:57.139Z,72
2023-09-25T17:12:56.399Z,72
2023-09-25T17:14:56.230Z,72
2023-09-25T17:16:56.900Z,72
2023-09-25T17:20:58.020Z,73
2023-09-25T17:22:56.899Z,73
2023-09-25T17:24:56.697Z,74
2023-09-25T17:26:57.002Z,75
2023-09-25T17:28:59.591Z,76
2023-09-25T17:31:08.953Z,76
2023-09-25T17:32:56.928Z,77
2023-09-25T17:34:57.006Z,77
2023-09-25T17:36:57.154Z,77
2023-09-25T17:38:55.687Z,77
2023-09-25T17:40:57.233Z,77
2023-09-25T17:42:56.282Z,77
2023-09-25T17:44:56.519Z,77
2023-09-25T17:46:56.950Z,77
2023-09-25T17:48:57.372Z,78
2023-09-25T17:50:54.920Z,78
2023-09-25T17:52:57.017Z,79
2023-09-25T17:54:57.071Z,79
2023-09-25T17:56:56.703Z,80
2023-09-25T17:58:57.303Z,79
2023-09-25T18:00:57.277Z,80
2023-09-25T18:02:55.820Z,81
2023-09-25T18:04:57.200Z,81
2023-09-25T18:06:57.222Z,81
2023-09-25T18:08:56.813Z,81
2023-09-25T18:10:57.382Z,81
2023-09-25T18:12:57.382Z,81
2023-09-25T18:14:55.600Z,81
2023-09-25T18:18:57.403Z,81
2023-09-25T18:20:57.925Z,81
2023-09-25T18:22:57.110Z,82
2023-09-25T18:24:57.488Z,81
2023-09-25T18:26:55.711Z,82
2023-09-25T18:29:01.358Z,81
2023-09-25T18:32:32.572Z,81
2023-09-25T18:36:31.297Z,82
2023-09-25T18:38:32.835Z,82
2023-09-25T18:40:34.386Z,82
2023-09-25T18:42:31.622Z,82
2023-09-25T18:44:31.027Z,82
2023-09-25T18:46:30.829Z,81
2023-09-25T18:48:27.919Z,81
2023-09-25T18:50:32.645Z,81
2023-09-25T18:52:32.316Z,81
2023-09-25T18:54:29.260Z,82
2023-09-25T18:56:31.658Z,82
2023-09-25T18:58:32.642Z,82
2023-09-25T19:00:30.780Z,82
2023-09-25T19:02:32.181Z,83
2023-09-25T19:04:30.616Z,82
2023-09-25T19:08:33.351Z,82
2023-09-25T19:10:33.781Z,82
2023-09-25T19:12:32.564Z,82
2023-09-25T19:14:32.249Z,82
2023-09-25T19:18:32.254Z,82
2023-09-25T19:20:31.901Z,81
2023-09-25T19:22:32.275Z,82
2023-09-25T19:24:29.289Z,83
2023-09-25T19:26:32.126Z,83
2023-09-25T19:30:29.816Z,84
2023-09-25T19:32:31.215Z,84
2023-09-25T19:36:32.582Z,84
2023-09-25T19:38:35.430Z,84
2023-09-25T19:40:32.747Z,84
2023-09-25T19:42:31.653Z,84
2023-09-25T19:44:32.672Z,84
2023-09-25T19:46:32.592Z,84
2023-09-25T19:48:30.450Z,84
2023-09-25T19:54:32.224Z,83
2023-09-25T19:56:33.018Z,84
2023-09-25T20:00:31.667Z,83
2023-09-25T20:02:30.107Z,83
2023-09-25T20:04:31.707Z,83
2023-09-25T20:06:31.818Z,83
2023-09-25T20:08:30.159Z,83
2023-09-25T20:10:31.654Z,83
2023-09-25T20:12:32.407Z,83
2023-09-25T20:16:32.689Z,84
2023-09-25T20:18:32.207Z,83
2023-09-25T20:20:30.532Z,83
2023-09-25T20:22:32.408Z,83
2023-09-25T20:24:32.112Z,83
2023-09-25T20:26:31.337Z,83
2023-09-25T20:28:32.671Z,84
2023-09-25T20:30:32.953Z,84
2023-09-25T20:32:32.667Z,83
2023-09-25T20:36:32.710Z,84
2023-09-25T20:38:29.377Z,83
2023-09-25T20:40:32.084Z,83
2023-09-25T20:42:32.721Z,83
2023-09-25T20:44:31.704Z,83
2023-09-25T20:46:32.072Z,83
2023-09-25T20:48:36.094Z,84
2023-09-25T20:50:36.063Z,84
2023-09-25T20:52:32.009Z,83
2023-09-25T20:54:31.944Z,83
2023-09-25T20:56:30.530Z,83
2023-09-25T20:58:32.691Z,83
2023-09-25T21:00:32.257Z,84
2023-09-25T21:02:29.470Z,83
2023-09-25T21:04:32.524Z,83
2023-09-25T21:06:32.300Z,83
2023-09-25T21:08:32.025Z,83
2023-09-25T21:10:32.126Z,84
2023-09-25T21:12:32.192Z,84
2023-09-25T21:14:30.145Z,84
2023-09-25T21:16:32.191Z,84
2023-09-25T21:18:32.241Z,84
2023-09-25T21:22:31.590Z,85
2023-09-25T21:24:32.197Z,84
2023-09-25T21:26:30.806Z,84
2023-09-25T21:28:31.748Z,84
2023-09-25T21:30:31.241Z,84
2023-09-25T21:32:30.832Z,83
2023-09-25T21:34:32.146Z,84
2023-09-25T21:36:30.325Z,84
2023-09-25T21:38:32.680Z,83
2023-09-25T21:40:32.166Z,83
2023-09-25T21:42:32.025Z,83
2023-09-25T21:44:32.700Z,83
2023-09-25T21:46:32.237Z,83
2023-09-25T21:48:29.602Z,83
2023-09-25T21:50:31.375Z,83
2023-09-25T21:52:32.038Z,84
2023-09-25T21:54:31.870Z,84
2023-09-25T21:56:32.343Z,84
2023-09-25T21:58:29.561Z,84
2023-09-25T22:00:32.963Z,83
2023-09-25T22:02:32.821Z,83
2023-09-25T22:04:32.587Z,84
2023-09-25T22:06:32.438Z,84
2023-09-25T22:08:31.152Z,84
2023-09-25T22:10:32.231Z,84
2023-09-25T22:12:32.356Z,84
2023-09-25T22:14:31.591Z,84
2023-09-25T22:16:32.284Z,84
2023-09-25T22:18:31.294Z,84
2023-09-25T22:20:29.823Z,84
2023-09-25T22:24:32.016Z,84
2023-09-25T22:26:32.366Z,84
2023-09-25T22:28:32.106Z,84
2023-09-25T22:30:32.706Z,84
2023-09-25T22:32:31.226Z,84
2023-09-25T22:34:32.301Z,84
2023-09-25T22:36:32.283Z,84
2023-09-25T22:38:31.707Z,84
2023-09-25T22:40:31.862Z,84
2023-09-25T22:42:32.376Z,84
2023-09-25T22:44:31.734Z,84
2023-09-25T22:46:32.487Z,85
2023-09-25T22:48:30.763Z,85
2023-09-25T22:50:30.307Z,85
2023-09-25T22:54:32.451Z,84
2023-09-25T22:56:32.477Z,84
2023-09-25T23:00:32.077Z,84
2023-09-25T23:02:30.912Z,84
2023-09-25T23:04:31.995Z,84
2023-09-25T23:06:31.931Z,84
2023-09-25T23:08:31.222Z,85
2023-09-25T23:10:30.079Z,85
2023-09-25T23:12:30.070Z,84
2023-09-25T23:14:32.100Z,84
2023-09-25T23:16:36.055Z,84
2023-09-25T23:18:32.853Z,84
2023-09-25T23:20:29.845Z,84
2023-09-25T23:22:32.244Z,84
2023-09-25T23:24:32.300Z,85
2023-09-25T23:26:31.645Z,85
2023-09-25T23:28:32.028Z,85
2023-09-25T23:30:32.032Z,85
2023-09-25T23:32:29.883Z,85
2023-09-25T23:34:30.586Z,85
2023-09-25T23:38:31.624Z,85
2023-09-25T23:40:32.245Z,85
2023-09-25T23:44:32.335Z,85
2023-09-25T23:46:31.423Z,86
2023-09-25T23:48:31.946Z,85
2023-09-25T23:50:30.613Z,86
2023-09-25T23:52:30.217Z,86
2023-09-25T23:54:31.130Z,86
2023-09-25T23:56:31.303Z,86
2023-09-25T23:58:31.613Z,86
